Startpagina
METAR-TAF:

METAR-TAF

Vliegvelden :

Lankaran, Azerbeidzjan

breedte: 38-44-47N, lengte: 048-49-04E, hoogte: 9 m

Actueel weer

Dit bericht is 1 uur en het 18 minuten geleden gemaakt, om 23:00 UTC
Wind 6 kt uit het zuidzuidoosten
Temperatuur 17°C
Vochtigheid 82%
Druk 1013 hPa
Zicht 10 km of meer

METAR: UBBL 312300Z 16006KT 9999 NSC 17/14 Q1013 R33/CLRD// NOSIG RMK MT OP

Tijdstip: 04:18 (00:18 UTC)

Verwachting

Dit bericht is 1 uur en het 7 minuten geleden gemaakt, om 23:11 UTC
Verwachting geldig van 01 om 00 UTC tot 01 om 24 UTC
Wind 8 kt uit het zuidzuidoosten
Zicht 10 km of meer
Verspreide wolken op 10000 ft
Tijdelijke
van 01 om 00 UTC tot 01 om 04 UTC
Wind 4 kt uit variabele richting
Zicht: 5000 m
Verspreide wolken op 1000 ft
nevel
Tijdelijke
van 01 om 08 UTC tot 01 om 18 UTC
Wind 14 kt uit het zuiden

TAF: UBBL 312311Z 0100/0124 16008KT 9999 SCT100 TX28/0110Z TN16/0102Z TEMPO 0100/0104 VRB04KT 5000 BR SCT010 TEMPO 0108/0118 17014KT

Waarnemingen en weersverwachtingen van meer dan 4000 vliegvelden (METAR en TAF).

De beschikbare stations zijn de gele en rode punten op de kaart.

Ga met uw muis naar het station om de naam te zien.

Klik dan om waarnemingen en weersverwachtingen te zien.

kaart wijzigen: klik op de groene knoppen met een zwart kruis om in te zoomen, op de groene knop met een streepje om uit te zoomen of op de groene pijlen voor aangrenzende kaarten.


METAR-TAF: